createdAt,value
2018-05-07T00:00:05.839Z,19.70
2018-05-07T00:02:32.473Z,19.61
2018-05-07T00:04:59.473Z,19.55
2018-05-07T00:07:26.194Z,19.56
2018-05-07T00:09:56.831Z,19.52
2018-05-07T00:12:23.559Z,19.32
2018-05-07T00:14:50.073Z,19.32
2018-05-07T00:17:17.008Z,19.28
2018-05-07T00:19:49.862Z,19.22
2018-05-07T00:22:16.445Z,19.18
2018-05-07T00:24:43.501Z,19.18
2018-05-07T00:27:10.441Z,19.26
2018-05-07T00:29:37.641Z,19.28
2018-05-07T00:32:04.350Z,19.19
2018-05-07T00:34:31.265Z,19.11
2018-05-07T00:36:57.902Z,18.94
2018-05-07T00:39:28.754Z,18.98
2018-05-07T00:41:55.466Z,18.95
2018-05-07T00:44:22.271Z,18.92
2018-05-07T00:46:48.911Z,18.92
2018-05-07T00:49:19.092Z,18.89
2018-05-07T00:51:46.370Z,18.98
2018-05-07T00:54:12.942Z,19.02
2018-05-07T00:56:39.556Z,18.98
2018-05-07T00:59:09.644Z,18.90
2018-05-07T01:01:36.255Z,19.09
2018-05-07T01:04:02.848Z,19.12
2018-05-07T01:06:29.568Z,19.05
2018-05-07T01:08:57.518Z,18.96
2018-05-07T01:11:23.954Z,18.89
2018-05-07T01:13:50.442Z,18.95
2018-05-07T01:16:17.004Z,18.87
2018-05-07T01:18:47.592Z,18.90
2018-05-07T01:21:14.297Z,18.84
2018-05-07T01:23:41.239Z,18.83
2018-05-07T01:26:08.014Z,18.80
2018-05-07T01:28:34.768Z,18.81
2018-05-07T01:31:01.365Z,18.72
2018-05-07T01:33:28.037Z,18.82
2018-05-07T01:35:54.701Z,18.85
2018-05-07T01:38:22.301Z,18.72
2018-05-07T01:40:48.894Z,18.73
2018-05-07T01:43:15.604Z,18.73
2018-05-07T01:45:42.148Z,18.75
2018-05-07T01:48:08.775Z,18.74
2018-05-07T01:50:35.397Z,18.82
2018-05-07T01:53:02.030Z,18.74
2018-05-07T01:55:28.630Z,18.70
2018-05-07T01:57:56.251Z,18.75
2018-05-07T02:00:23.113Z,18.78
2018-05-07T02:02:49.832Z,18.76
2018-05-07T02:05:16.734Z,18.79
2018-05-07T02:07:46.997Z,18.82
2018-05-07T02:10:13.624Z,18.81
2018-05-07T02:12:40.254Z,18.78
2018-05-07T02:15:06.916Z,18.89
2018-05-07T02:17:33.587Z,18.82
2018-05-07T02:20:00.341Z,18.81
2018-05-07T02:22:26.937Z,18.77
2018-05-07T02:24:53.766Z,18.69
2018-05-07T02:27:20.474Z,18.74
2018-05-07T02:29:48.427Z,18.75
2018-05-07T02:32:15.218Z,18.68
2018-05-07T02:34:42.126Z,18.63
2018-05-07T02:37:08.793Z,18.45
2018-05-07T02:39:36.453Z,18.25
2018-05-07T02:42:03.160Z,18.15
2018-05-07T02:44:29.685Z,18.21
2018-05-07T02:46:56.265Z,18.14
2018-05-07T02:49:32.845Z,17.79
2018-05-07T02:51:59.673Z,17.76
2018-05-07T02:54:26.399Z,17.74
2018-05-07T02:56:52.991Z,17.78
2018-05-07T02:59:26.073Z,17.40
2018-05-07T03:01:53.090Z,17.16
2018-05-07T03:04:19.788Z,17.24
2018-05-07T03:06:46.445Z,17.31
2018-05-07T03:09:16.737Z,17.48
2018-05-07T03:11:43.304Z,17.58
2018-05-07T03:14:09.973Z,17.63
2018-05-07T03:16:36.696Z,17.68
2018-05-07T03:19:07.834Z,17.67
2018-05-07T03:21:34.480Z,17.76
2018-05-07T03:24:01.210Z,17.72
2018-05-07T03:26:27.955Z,17.68
2018-05-07T03:29:00.541Z,17.68
2018-05-07T03:31:27.761Z,17.70
2018-05-07T03:33:54.449Z,17.75
2018-05-07T03:36:21.162Z,17.71
2018-05-07T03:38:51.448Z,17.72
2018-05-07T03:41:18.114Z,17.79
2018-05-07T03:43:44.658Z,17.69
2018-05-07T03:46:11.612Z,17.76
2018-05-07T03:48:42.930Z,17.69
2018-05-07T03:51:09.446Z,17.70
2018-05-07T03:53:36.377Z,17.72
2018-05-07T03:56:03.124Z,17.79
2018-05-07T03:58:35.180Z,17.71
2018-05-07T04:01:01.781Z,17.66
2018-05-07T04:03:28.376Z,17.74
2018-05-07T04:05:55.143Z,17.74
2018-05-07T04:08:26.222Z,17.77
2018-05-07T04:10:52.911Z,17.81
2018-05-07T04:13:20.035Z,17.75
2018-05-07T04:15:46.803Z,17.75
2018-05-07T04:18:25.716Z,17.76
2018-05-07T04:21:04.406Z,17.90
2018-05-07T04:23:43.096Z,17.85
2018-05-07T04:26:09.762Z,17.80
2018-05-07T04:28:42.862Z,17.81
2018-05-07T04:31:09.361Z,17.85
2018-05-07T04:33:36.073Z,17.86
2018-05-07T04:36:02.832Z,17.99
2018-05-07T04:38:29.541Z,18.03
2018-05-07T04:40:56.496Z,18.03
2018-05-07T04:43:23.201Z,18.13
2018-05-07T04:45:49.838Z,18.14
2018-05-07T04:48:20.724Z,18.28
2018-05-07T04:50:47.369Z,18.36
2018-05-07T04:53:14.117Z,18.20
2018-05-07T04:55:40.901Z,18.31
2018-05-07T04:58:11.258Z,18.41
2018-05-07T05:00:37.873Z,18.31
2018-05-07T05:03:04.685Z,18.30
2018-05-07T05:05:31.537Z,18.44
2018-05-07T05:08:01.282Z,18.30
2018-05-07T05:10:27.881Z,18.40
2018-05-07T05:12:54.431Z,18.57
2018-05-07T05:15:21.147Z,18.43
2018-05-07T05:17:51.343Z,18.63
2018-05-07T05:20:17.935Z,18.60
2018-05-07T05:22:44.604Z,18.68
2018-05-07T05:25:11.490Z,18.48
2018-05-07T05:27:39.417Z,18.68
2018-05-07T05:30:05.991Z,18.72
2018-05-07T05:32:32.688Z,18.71
2018-05-07T05:34:59.341Z,18.71
2018-05-07T05:37:30.023Z,18.68
2018-05-07T05:39:56.656Z,18.84
2018-05-07T05:42:23.419Z,18.90
2018-05-07T05:44:50.269Z,18.87
2018-05-07T05:47:20.442Z,19.19
2018-05-07T05:49:47.216Z,19.30
2018-05-07T05:52:13.964Z,19.18
2018-05-07T05:54:41.689Z,19.35
2018-05-07T05:57:09.413Z,19.54
2018-05-07T05:59:37.572Z,19.55
2018-05-07T06:02:04.151Z,19.71
2018-05-07T06:04:30.861Z,19.92
2018-05-07T06:06:57.842Z,19.64
2018-05-07T06:09:24.512Z,19.96
2018-05-07T06:11:51.305Z,20.19
2018-05-07T06:14:18.050Z,20.07
2018-05-07T06:16:44.741Z,20.57
2018-05-07T06:19:12.280Z,20.75
2018-05-07T06:21:38.825Z,21.17
2018-05-07T06:24:05.307Z,21.06
2018-05-07T06:26:32.398Z,20.84
2018-05-07T06:29:04.625Z,20.69
2018-05-07T06:31:32.537Z,21.41
2018-05-07T06:33:59.378Z,21.20
2018-05-07T06:36:26.177Z,21.52
2018-05-07T06:38:56.484Z,21.46
2018-05-07T06:41:24.815Z,21.35
2018-05-07T06:43:51.934Z,21.50
2018-05-07T06:46:18.497Z,22.05
2018-05-07T06:48:46.253Z,21.78
2018-05-07T06:51:13.277Z,21.16
2018-05-07T06:53:40.217Z,21.79
2018-05-07T06:56:07.389Z,22.06
2018-05-07T06:58:39.712Z,21.47
2018-05-07T07:01:06.412Z,21.89
2018-05-07T07:03:33.173Z,21.46
2018-05-07T07:05:59.844Z,21.30
2018-05-07T07:08:30.381Z,21.58
2018-05-07T07:10:56.867Z,21.06
2018-05-07T07:13:23.473Z,21.53
2018-05-07T07:15:50.203Z,21.63
2018-05-07T07:18:17.322Z,22.12
2018-05-07T07:20:44.124Z,22.52
2018-05-07T07:23:10.774Z,21.94
2018-05-07T07:25:37.574Z,22.11
2018-05-07T07:28:11.805Z,22.66
2018-05-07T07:30:38.457Z,22.54
2018-05-07T07:33:05.621Z,22.90
2018-05-07T07:35:32.332Z,22.82
2018-05-07T07:38:09.276Z,22.82
2018-05-07T07:40:35.951Z,22.82
2018-05-07T07:43:02.793Z,23.38
2018-05-07T07:45:29.514Z,24.39
2018-05-07T07:48:02.229Z,24.11
2018-05-07T07:50:28.738Z,23.60
2018-05-07T07:52:55.274Z,24.28
2018-05-07T07:55:21.914Z,24.09
2018-05-07T07:57:48.552Z,23.76
2018-05-07T08:00:15.046Z,24.28
2018-05-07T08:02:41.715Z,24.08
2018-05-07T08:05:08.413Z,23.96
2018-05-07T08:07:35.306Z,24.14
2018-05-07T08:10:02.043Z,24.07
2018-05-07T08:12:28.777Z,23.48
2018-05-07T08:14:55.514Z,23.67
2018-05-07T08:17:25.563Z,23.16
2018-05-07T08:19:52.211Z,23.28
2018-05-07T08:22:18.849Z,23.35
2018-05-07T08:24:45.541Z,23.48
2018-05-07T08:27:15.203Z,23.29
2018-05-07T08:29:42.109Z,23.62
2018-05-07T08:32:08.718Z,23.51
2018-05-07T08:34:35.463Z,24.43
2018-05-07T08:37:03.639Z,24.25
2018-05-07T08:39:30.280Z,24.49
2018-05-07T08:41:58.005Z,24.64
2018-05-07T08:44:24.529Z,25.16
2018-05-07T08:46:56.157Z,25.58
2018-05-07T08:49:26.342Z,25.72
2018-05-07T08:51:53.265Z,25.69
2018-05-07T08:54:19.910Z,26.02
2018-05-07T08:56:46.582Z,25.49
2018-05-07T08:59:13.348Z,25.25
2018-05-07T09:01:40.766Z,25.79
2018-05-07T09:04:07.407Z,25.72
2018-05-07T09:06:34.075Z,25.93
2018-05-07T09:09:01.005Z,26.65
2018-05-07T09:11:27.741Z,25.77
2018-05-07T09:13:54.376Z,25.16
2018-05-07T09:16:21.042Z,26.02
2018-05-07T09:18:53.194Z,26.13
2018-05-07T09:21:19.878Z,25.74
2018-05-07T09:23:46.650Z,26.43
2018-05-07T09:26:13.322Z,26.46
2018-05-07T09:28:51.554Z,26.96
2018-05-07T09:31:18.121Z,26.93
2018-05-07T09:33:44.761Z,26.89
2018-05-07T09:36:11.837Z,26.74
2018-05-07T09:38:42.237Z,26.84
2018-05-07T09:41:09.052Z,27.50
2018-05-07T09:43:35.715Z,27.94
2018-05-07T09:46:02.386Z,26.53
2018-05-07T09:48:42.094Z,27.50
2018-05-07T09:51:08.761Z,27.78
2018-05-07T09:53:36.205Z,27.17
2018-05-07T09:56:02.739Z,27.07
2018-05-07T09:58:30.401Z,27.35
2018-05-07T10:00:57.228Z,27.49
2018-05-07T10:03:24.111Z,27.36
2018-05-07T10:05:51.057Z,27.73
2018-05-07T10:08:23.814Z,28.08
2018-05-07T10:10:50.829Z,27.30
2018-05-07T10:13:17.506Z,27.94
2018-05-07T10:15:44.033Z,28.04
2018-05-07T10:18:15.002Z,29.23
2018-05-07T10:20:41.597Z,28.42
2018-05-07T10:23:08.300Z,29.34
2018-05-07T10:25:34.873Z,29.03
2018-05-07T10:28:06.317Z,28.16
2018-05-07T10:30:33.021Z,28.99
2018-05-07T10:32:59.741Z,29.16
2018-05-07T10:35:26.494Z,28.58
2018-05-07T10:37:59.202Z,29.82
2018-05-07T10:40:25.973Z,29.30
2018-05-07T10:42:52.753Z,28.94
2018-05-07T10:45:19.811Z,29.16
2018-05-07T10:47:54.226Z,29.61
2018-05-07T10:50:21.426Z,29.21
2018-05-07T10:52:48.369Z,29.68
2018-05-07T10:55:14.969Z,30.03
2018-05-07T10:57:52.761Z,28.95
2018-05-07T11:00:19.958Z,29.15
2018-05-07T11:02:46.461Z,29.60
2018-05-07T11:05:13.126Z,29.60
2018-05-07T11:07:47.639Z,29.38
2018-05-07T11:10:14.458Z,29.06
2018-05-07T11:12:41.062Z,27.95
2018-05-07T11:15:07.702Z,28.91
2018-05-07T11:17:41.473Z,29.43
2018-05-07T11:20:08.056Z,27.38
2018-05-07T11:22:34.822Z,29.40
2018-05-07T11:25:01.558Z,29.40
2018-05-07T11:27:31.332Z,28.92
2018-05-07T11:29:58.206Z,28.81
2018-05-07T11:32:24.966Z,28.90
2018-05-07T11:34:51.634Z,28.93
2018-05-07T11:37:28.644Z,29.33
2018-05-07T11:39:55.819Z,29.10
2018-05-07T11:42:22.606Z,29.03
2018-05-07T11:44:49.285Z,29.69
2018-05-07T11:47:30.510Z,30.15
2018-05-07T11:49:57.174Z,29.94
2018-05-07T11:52:24.218Z,28.95
2018-05-07T11:54:50.697Z,28.89
2018-05-07T11:57:20.669Z,29.75
2018-05-07T11:59:47.334Z,29.57
2018-05-07T12:02:14.032Z,30.69
2018-05-07T12:04:40.681Z,30.47
2018-05-07T12:07:13.005Z,29.33
2018-05-07T12:09:39.678Z,29.98
2018-05-07T12:12:06.423Z,29.51
2018-05-07T12:14:33.001Z,29.84
2018-05-07T12:17:06.901Z,29.67
2018-05-07T12:19:33.589Z,30.18
2018-05-07T12:22:00.301Z,29.99
2018-05-07T12:24:27.305Z,29.38
2018-05-07T12:26:58.494Z,30.43
2018-05-07T12:29:25.122Z,29.92
2018-05-07T12:31:52.128Z,29.82
2018-05-07T12:34:19.203Z,30.43
2018-05-07T12:36:51.702Z,30.18
2018-05-07T12:39:18.276Z,30.31
2018-05-07T12:41:44.925Z,29.57
2018-05-07T12:44:11.430Z,29.70
2018-05-07T12:46:55.066Z,29.23
2018-05-07T12:49:21.697Z,29.07
2018-05-07T12:51:48.347Z,28.97
2018-05-07T12:54:14.914Z,29.27
2018-05-07T12:56:45.721Z,28.91
2018-05-07T12:59:13.393Z,29.61
2018-05-07T13:01:40.023Z,30.64
2018-05-07T13:04:06.920Z,30.07
2018-05-07T13:06:37.321Z,30.48
2018-05-07T13:09:05.799Z,30.45
2018-05-07T13:11:32.499Z,29.66
2018-05-07T13:13:59.229Z,29.76
2018-05-07T13:16:29.645Z,29.46
2018-05-07T13:18:56.294Z,30.89
2018-05-07T13:21:22.934Z,29.54
2018-05-07T13:23:49.440Z,29.47
2018-05-07T13:26:16.225Z,30.08
2018-05-07T13:28:42.905Z,29.65
2018-05-07T13:31:09.660Z,30.05
2018-05-07T13:33:36.255Z,29.16
2018-05-07T13:36:07.317Z,29.13
2018-05-07T13:38:33.857Z,30.06
2018-05-07T13:41:00.758Z,30.35
2018-05-07T13:43:27.745Z,30.36
2018-05-07T13:45:54.450Z,31.02
2018-05-07T13:48:21.133Z,30.10
2018-05-07T13:50:47.779Z,30.93
2018-05-07T13:53:14.370Z,30.71
2018-05-07T13:55:41.151Z,29.29
2018-05-07T13:58:15.388Z,30.50
2018-05-07T14:00:42.206Z,30.23
2018-05-07T14:03:08.825Z,29.28
2018-05-07T14:05:35.589Z,31.10
2018-05-07T14:08:09.267Z,28.72
2018-05-07T14:10:36.169Z,28.90
2018-05-07T14:13:02.755Z,28.26
2018-05-07T14:15:29.428Z,29.13
2018-05-07T14:18:06.898Z,29.69
2018-05-07T14:20:33.597Z,29.85
2018-05-07T14:23:00.374Z,28.46
2018-05-07T14:25:27.330Z,28.71
2018-05-07T14:28:00.060Z,28.96
2018-05-07T14:30:26.872Z,30.19
2018-05-07T14:32:53.510Z,29.33
2018-05-07T14:35:20.027Z,30.08
2018-05-07T14:37:57.735Z,29.64
2018-05-07T14:40:24.331Z,29.17
2018-05-07T14:42:51.095Z,29.27
2018-05-07T14:45:19.386Z,30.30
2018-05-07T14:47:53.108Z,29.95
2018-05-07T14:50:19.810Z,30.76
2018-05-07T14:52:46.731Z,28.93
2018-05-07T14:55:13.389Z,30.80
2018-05-07T14:57:47.693Z,29.69
2018-05-07T15:00:14.950Z,30.31
2018-05-07T15:02:41.520Z,30.37
2018-05-07T15:05:08.098Z,30.55
2018-05-07T15:07:38.957Z,29.22
2018-05-07T15:10:05.637Z,28.97
2018-05-07T15:12:32.388Z,28.81
2018-05-07T15:14:59.101Z,28.61
2018-05-07T15:17:28.820Z,28.98
2018-05-07T15:19:55.444Z,28.65
2018-05-07T15:22:22.038Z,27.97
2018-05-07T15:24:48.720Z,29.71
2018-05-07T15:27:22.630Z,28.31
2018-05-07T15:29:49.601Z,28.33
2018-05-07T15:32:16.248Z,28.16
2018-05-07T15:34:42.915Z,30.49
2018-05-07T15:37:15.968Z,31.15
2018-05-07T15:39:43.019Z,30.42
2018-05-07T15:42:09.716Z,29.34
2018-05-07T15:44:36.645Z,30.12
2018-05-07T15:47:04.586Z,31.85
2018-05-07T15:49:31.257Z,30.13
2018-05-07T15:51:57.845Z,29.84
2018-05-07T15:54:24.622Z,30.43
2018-05-07T15:56:54.970Z,28.45
2018-05-07T15:59:21.529Z,28.43
2018-05-07T16:01:48.092Z,26.96
2018-05-07T16:04:14.614Z,28.37
2018-05-07T16:06:44.478Z,28.03
2018-05-07T16:09:11.093Z,27.76
2018-05-07T16:11:37.746Z,27.72
2018-05-07T16:14:04.378Z,28.04
2018-05-07T16:16:34.852Z,28.11
2018-05-07T16:19:01.411Z,27.92
2018-05-07T16:21:28.060Z,26.46
2018-05-07T16:23:54.502Z,26.60
2018-05-07T16:26:29.772Z,26.12
2018-05-07T16:28:56.531Z,26.07
2018-05-07T16:31:23.160Z,26.31
2018-05-07T16:33:49.738Z,25.90
2018-05-07T16:36:20.390Z,25.34
2018-05-07T16:38:47.621Z,24.97
2018-05-07T16:41:14.196Z,24.57
2018-05-07T16:43:40.936Z,24.74
2018-05-07T16:46:11.386Z,24.21
2018-05-07T16:48:38.244Z,24.00
2018-05-07T16:51:04.720Z,23.79
2018-05-07T16:53:31.375Z,23.80
2018-05-07T16:55:59.267Z,23.77
2018-05-07T16:58:25.905Z,23.48
2018-05-07T17:00:52.384Z,23.75
2018-05-07T17:03:19.026Z,23.46
2018-05-07T17:05:53.341Z,23.40
2018-05-07T17:08:20.183Z,23.20
2018-05-07T17:10:46.711Z,23.32
2018-05-07T17:13:13.991Z,23.09
2018-05-07T17:15:54.246Z,23.08
2018-05-07T17:18:21.034Z,22.92
2018-05-07T17:20:47.667Z,22.98
2018-05-07T17:23:14.305Z,22.77
2018-05-07T17:25:44.022Z,22.74
2018-05-07T17:28:10.694Z,22.75
2018-05-07T17:30:37.441Z,22.61
2018-05-07T17:33:05.083Z,22.83
2018-05-07T17:35:37.282Z,22.50
2018-05-07T17:38:04.025Z,22.64
2018-05-07T17:40:31.270Z,22.55
2018-05-07T17:42:58.012Z,22.49
2018-05-07T17:45:37.791Z,22.31
2018-05-07T17:48:16.374Z,22.44
2018-05-07T17:50:43.016Z,22.53
2018-05-07T17:53:09.610Z,22.20
2018-05-07T17:55:41.322Z,22.05
2018-05-07T17:58:07.863Z,22.25
2018-05-07T18:00:35.855Z,22.14
2018-05-07T18:03:02.478Z,22.07
2018-05-07T18:05:32.644Z,21.78
2018-05-07T18:07:59.294Z,21.92
2018-05-07T18:10:26.054Z,21.87
2018-05-07T18:12:52.700Z,21.82
2018-05-07T18:15:22.415Z,21.77
2018-05-07T18:17:49.206Z,21.67
2018-05-07T18:20:16.334Z,21.46
2018-05-07T18:22:43.061Z,21.56
2018-05-07T18:25:09.775Z,21.45
2018-05-07T18:27:36.321Z,21.51
2018-05-07T18:30:02.891Z,21.85
2018-05-07T18:32:29.606Z,21.78
2018-05-07T18:34:56.089Z,21.45
2018-05-07T18:37:29.042Z,21.58
2018-05-07T18:39:55.770Z,21.59
2018-05-07T18:42:22.282Z,21.47
2018-05-07T18:44:49.014Z,21.35
2018-05-07T18:47:19.541Z,21.18
2018-05-07T18:49:46.206Z,21.22
2018-05-07T18:52:12.868Z,21.42
2018-05-07T18:54:39.589Z,21.27
2018-05-07T18:57:11.805Z,21.32
2018-05-07T18:59:39.311Z,21.16
2018-05-07T19:02:06.062Z,21.03
2018-05-07T19:04:32.718Z,20.95
2018-05-07T19:07:06.759Z,21.19
2018-05-07T19:09:33.419Z,20.95
2018-05-07T19:12:00.084Z,20.98
2018-05-07T19:14:26.886Z,20.85
2018-05-07T19:17:00.132Z,20.62
2018-05-07T19:19:27.193Z,20.71
2018-05-07T19:21:53.849Z,21.06
2018-05-07T19:24:20.663Z,20.48
2018-05-07T19:26:51.231Z,20.66
2018-05-07T19:29:17.862Z,20.60
2018-05-07T19:31:44.563Z,20.31
2018-05-07T19:34:12.018Z,20.51
2018-05-07T19:36:46.246Z,20.48
2018-05-07T19:39:12.957Z,20.34
2018-05-07T19:41:39.655Z,20.15
2018-05-07T19:44:06.278Z,20.15
2018-05-07T19:46:36.855Z,20.42
2018-05-07T19:49:03.690Z,20.16
2018-05-07T19:51:30.339Z,20.21
2018-05-07T19:53:56.992Z,20.16
2018-05-07T19:56:28.118Z,19.83
2018-05-07T19:58:55.786Z,19.95
2018-05-07T20:01:22.436Z,19.94
2018-05-07T20:03:49.141Z,19.95
2018-05-07T20:06:22.113Z,19.89
2018-05-07T20:08:49.123Z,19.89
2018-05-07T20:11:16.062Z,19.87
2018-05-07T20:13:42.510Z,19.69
2018-05-07T20:16:12.275Z,19.77
2018-05-07T20:18:39.199Z,19.64
2018-05-07T20:21:05.811Z,19.68
2018-05-07T20:23:32.443Z,19.63
2018-05-07T20:26:03.096Z,19.55
2018-05-07T20:28:29.836Z,19.43
2018-05-07T20:30:56.337Z,19.50
2018-05-07T20:33:23.455Z,19.39
2018-05-07T20:35:56.243Z,19.49
2018-05-07T20:38:23.077Z,19.37
2018-05-07T20:40:52.897Z,19.19
2018-05-07T20:43:19.468Z,19.31
2018-05-07T20:45:46.250Z,19.41
2018-05-07T20:48:13.066Z,19.30
2018-05-07T20:50:39.677Z,19.30
2018-05-07T20:53:06.397Z,19.13
2018-05-07T20:55:33.407Z,19.19
2018-05-07T20:57:59.964Z,19.09
2018-05-07T21:00:26.655Z,18.99
2018-05-07T21:02:53.398Z,19.10
2018-05-07T21:05:25.746Z,19.16
2018-05-07T21:07:52.381Z,19.03
2018-05-07T21:10:19.391Z,18.96
2018-05-07T21:12:46.158Z,19.08
2018-05-07T21:15:12.921Z,19.05
2018-05-07T21:17:39.716Z,19.06
2018-05-07T21:20:06.405Z,19.01
2018-05-07T21:22:33.145Z,19.00
2018-05-07T21:25:00.062Z,19.02
2018-05-07T21:27:26.777Z,18.92
2018-05-07T21:29:53.421Z,18.86
2018-05-07T21:32:20.317Z,18.70
2018-05-07T21:34:47.041Z,18.65
2018-05-07T21:37:13.597Z,18.56
2018-05-07T21:39:40.225Z,18.60
2018-05-07T21:42:06.830Z,18.40
2018-05-07T21:44:33.445Z,18.26
2018-05-07T21:47:03.979Z,18.32
2018-05-07T21:49:30.671Z,18.27
2018-05-07T21:51:57.309Z,18.31
2018-05-07T21:54:23.997Z,18.18
2018-05-07T21:56:58.193Z,18.19
2018-05-07T21:59:24.948Z,18.09
2018-05-07T22:01:51.505Z,18.14
2018-05-07T22:04:18.116Z,18.12
2018-05-07T22:06:50.863Z,18.04
2018-05-07T22:09:17.850Z,18.01
2018-05-07T22:11:44.991Z,17.92
2018-05-07T22:14:11.749Z,17.89
2018-05-07T22:16:45.519Z,17.78
2018-05-07T22:19:12.192Z,17.77
2018-05-07T22:21:38.671Z,17.72
2018-05-07T22:24:05.678Z,17.66
2018-05-07T22:26:40.316Z,17.61
2018-05-07T22:29:06.941Z,17.65
2018-05-07T22:31:33.617Z,17.54
2018-05-07T22:34:00.349Z,17.52
2018-05-07T22:36:41.693Z,17.50
2018-05-07T22:39:08.347Z,17.49
2018-05-07T22:41:35.030Z,17.50
2018-05-07T22:44:01.657Z,17.54
2018-05-07T22:46:31.781Z,17.46
2018-05-07T22:48:58.479Z,17.52
2018-05-07T22:51:25.365Z,17.58
2018-05-07T22:53:52.166Z,17.47
2018-05-07T22:56:21.842Z,17.57
2018-05-07T22:58:48.573Z,17.57
2018-05-07T23:01:15.273Z,17.56
2018-05-07T23:03:41.993Z,17.66
2018-05-07T23:06:26.537Z,17.54
2018-05-07T23:08:53.148Z,17.59
2018-05-07T23:11:20.135Z,17.64
2018-05-07T23:13:46.843Z,17.63
2018-05-07T23:16:24.565Z,17.58
2018-05-07T23:18:51.267Z,17.57
2018-05-07T23:21:17.969Z,17.65
2018-05-07T23:23:44.596Z,17.58
2018-05-07T23:26:14.441Z,17.52
2018-05-07T23:28:41.631Z,17.40
2018-05-07T23:31:08.181Z,17.34
2018-05-07T23:33:34.845Z,17.45
2018-05-07T23:36:04.571Z,17.35
2018-05-07T23:38:31.377Z,17.29
2018-05-07T23:40:58.060Z,17.26
2018-05-07T23:43:24.589Z,17.14
2018-05-07T23:45:51.861Z,17.18
2018-05-07T23:48:18.403Z,17.04
2018-05-07T23:50:44.965Z,17.10
2018-05-07T23:53:11.599Z,17.10
2018-05-07T23:55:43.272Z,17.10
2018-05-07T23:58:09.932Z,17.07
